Time;durP1;ratioP1;P1;durP2;ratioP2;P2;SDS_P1;SDS_P2;PMS_P1;PMS_P2;Temp;Humidity;BMP_temperature;BMP_pressure;BME280_temperature;BME280_humidity;BME280_pressure;Samples;Min_cycle;Max_cycle;Signal;HPM_P1;HPM_P2
2023/02/13 00:02:00;;;;;;;19.20;10.07;;;;;;;7.40;100.00;101853.59;5028154;28;20178;-78
2023/02/13 00:04:26;;;;;;;16.05;9.48;;;;;;;7.42;100.00;101850.88;5026335;28;20044;-76
2023/02/13 00:06:52;;;;;;;21.85;9.68;;;;;;;7.43;100.00;101857.84;5047421;28;20539;-80
2023/02/13 00:09:18;;;;;;;19.48;9.75;;;;;;;7.42;100.00;101856.97;5018530;28;20059;-80
2023/02/13 00:11:43;;;;;;;20.35;10.10;;;;;;;7.44;100.00;101862.16;5035202;28;20082;-80
2023/02/13 00:14:09;;;;;;;23.50;9.55;;;;;;;7.43;100.00;101861.31;5051611;28;20029;-80
2023/02/13 00:16:35;;;;;;;16.27;9.23;;;;;;;7.45;100.00;101855.97;5051222;28;20039;-80
2023/02/13 00:19:01;;;;;;;19.15;8.50;;;;;;;7.45;100.00;101858.59;5021642;28;20060;-80
2023/02/13 00:21:27;;;;;;;12.50;8.30;;;;;;;7.46;100.00;101857.66;5050293;28;20040;-80
2023/02/13 00:23:53;;;;;;;16.88;7.57;;;;;;;7.47;100.00;101855.88;5013810;28;20041;-80
2023/02/13 00:26:19;;;;;;;19.42;8.98;;;;;;;7.45;100.00;101848.06;5029884;28;20075;-80
2023/02/13 00:28:46;;;;;;;12.50;6.53;;;;;;;7.46;100.00;101849.75;5043803;28;20048;-80
2023/02/13 00:31:15;;;;;;;12.68;6.65;;;;;;;7.46;100.00;101844.50;5031060;28;20034;-76
2023/02/13 00:33:41;;;;;;;15.32;6.80;;;;;;;7.45;100.00;101837.56;5026894;28;20429;-76
2023/02/13 00:36:15;;;;;;;16.77;6.85;;;;;;;7.48;100.00;101849.66;5027509;28;20025;-80
2023/02/13 00:38:41;;;;;;;12.25;6.72;;;;;;;7.44;100.00;101852.47;5006040;28;20059;-80
2023/02/13 00:41:09;;;;;;;13.95;6.78;;;;;;;7.47;100.00;101848.81;5013939;28;20033;-80
2023/02/13 00:43:35;;;;;;;15.75;7.07;;;;;;;7.45;100.00;101854.16;5012752;28;20041;-80
2023/02/13 00:46:01;;;;;;;10.75;5.88;;;;;;;7.47;100.00;101845.34;5028761;28;20037;-76
2023/02/13 00:48:30;;;;;;;14.43;5.97;;;;;;;7.49;100.00;101838.19;5029908;28;20045;-76
2023/02/13 00:50:56;;;;;;;15.00;5.70;;;;;;;7.50;100.00;101851.25;5024857;28;20033;-80
2023/02/13 00:53:23;;;;;;;12.98;5.88;;;;;;;7.52;100.00;101838.88;5027494;28;20048;-80
2023/02/13 00:55:49;;;;;;;13.98;5.90;;;;;;;7.53;100.00;101845.00;5029033;28;20033;-76
2023/02/13 00:58:16;;;;;;;15.75;6.32;;;;;;;7.56;100.00;101847.44;5008291;28;20072;-76
2023/02/13 01:00:43;;;;;;;10.50;6.13;;;;;;;7.53;100.00;101839.72;5013189;28;20037;-80
2023/02/13 01:03:09;;;;;;;13.02;6.35;;;;;;;7.55;100.00;101837.84;5016521;28;20033;-80
2023/02/13 01:05:35;;;;;;;12.80;6.53;;;;;;;7.57;100.00;101838.59;5032171;28;20543;-80
2023/02/13 01:08:01;;;;;;;11.93;6.22;;;;;;;7.53;100.00;101837.09;5030743;28;20067;-80
2023/02/13 01:10:27;;;;;;;12.88;6.13;;;;;;;7.56;100.00;101840.38;5011022;28;20033;-80
2023/02/13 01:12:53;;;;;;;14.55;6.38;;;;;;;7.59;100.00;101839.38;5029037;28;20037;-80
2023/02/13 01:15:19;;;;;;;11.70;6.20;;;;;;;7.60;100.00;101835.78;5012790;28;20034;-80
2023/02/13 01:17:46;;;;;;;15.90;6.55;;;;;;;7.60;100.00;101841.06;5016654;28;20124;-80
2023/02/13 01:20:14;;;;;;;18.10;6.70;;;;;;;7.61;100.00;101834.03;5029743;28;20026;-80
2023/02/13 01:22:43;;;;;;;16.42;6.47;;;;;;;7.62;100.00;101827.81;5011733;28;20037;-76
2023/02/13 01:25:09;;;;;;;14.27;6.00;;;;;;;7.61;100.00;101821.72;5021969;28;20038;-76
2023/02/13 01:27:36;;;;;;;10.60;6.07;;;;;;;7.60;100.00;101825.28;5009951;28;20100;-76
2023/02/13 01:30:04;;;;;;;17.55;6.20;;;;;;;7.61;100.00;101823.50;4944041;28;20106;-76
2023/02/13 01:32:30;;;;;;;12.05;6.00;;;;;;;7.56;100.00;101819.31;5007340;28;20497;-80
2023/02/13 01:34:56;;;;;;;17.05;6.00;;;;;;;7.55;100.00;101817.66;5009645;28;20061;-80
2023/02/13 01:37:22;;;;;;;14.38;5.90;;;;;;;7.53;100.00;101822.13;5007051;28;20486;-80
2023/02/13 01:39:48;;;;;;;15.48;5.72;;;;;;;7.53;100.00;101823.94;5009549;28;20061;-80
2023/02/13 01:42:24;;;;;;;10.90;5.60;;;;;;;7.50;100.00;101817.06;5005632;28;20108;-80
2023/02/13 01:45:01;;;;;;;12.52;6.20;;;;;;;7.54;100.00;101818.59;5009829;28;20034;-80
2023/02/13 01:47:44;;;;;;;16.60;6.75;;;;;;;7.53;100.00;101811.63;5011084;28;20057;-81
2023/02/13 01:50:16;;;;;;;20.13;5.95;;;;;;;7.54;100.00;101815.09;5001893;28;20038;-80
2023/02/13 01:52:49;;;;;;;12.90;6.03;;;;;;;7.53;100.00;101803.72;5010340;28;20030;-80
2023/02/13 01:55:16;;;;;;;13.93;5.47;;;;;;;7.51;100.00;101810.03;5009125;28;20049;-80
2023/02/13 01:57:47;;;;;;;17.58;6.32;;;;;;;7.51;100.00;101810.88;4992611;28;20520;-80
2023/02/13 02:00:15;;;;;;;12.70;6.65;;;;;;;7.50;100.00;101805.72;5008635;28;20041;-80
2023/02/13 02:02:57;;;;;;;13.90;5.97;;;;;;;7.50;100.00;101808.34;5006406;28;20053;-80
2023/02/13 02:05:29;;;;;;;9.32;5.38;;;;;;;7.46;100.00;101805.03;5000062;28;20030;-80
2023/02/13 02:07:59;;;;;;;14.45;6.03;;;;;;;7.44;100.00;101807.75;5008841;28;20041;-80
2023/02/13 02:10:25;;;;;;;15.13;6.38;;;;;;;7.42;100.00;101798.28;4989356;28;20123;-80
2023/02/13 02:13:19;;;;;;;11.48;5.82;;;;;;;7.48;100.00;101804.94;4990612;28;20562;-76
2023/02/13 02:15:48;;;;;;;18.70;5.93;;;;;;;7.43;100.00;101797.31;5005251;28;20092;-80
2023/02/13 02:18:19;;;;;;;21.60;6.20;;;;;;;7.44;100.00;101796.38;4984397;28;20044;-80
2023/02/13 02:21:07;;;;;;;14.30;6.20;;;;;;;7.45;100.00;101787.56;4990242;28;20439;-80
2023/02/13 02:23:53;;;;;;;13.60;5.57;;;;;;;7.43;100.00;101792.91;5008627;28;20064;-80
2023/02/13 02:26:37;;;;;;;12.27;5.38;;;;;;;7.42;100.00;101791.22;5042013;28;20034;-80
2023/02/13 02:29:40;;;;;;;11.43;5.72;;;;;;;7.42;100.00;101785.94;5009542;28;20076;-80
2023/02/13 02:32:43;;;;;;;13.07;5.07;;;;;;;7.39;100.00;101787.94;5025646;28;20533;-80
2023/02/13 02:35:31;;;;;;;11.77;4.65;;;;;;;7.39;100.00;101795.81;5028835;28;20040;-80
2023/02/13 02:38:42;;;;;;;11.15;5.50;;;;;;;7.37;100.00;101788.03;5027418;28;20135;-80
2023/02/13 02:41:42;;;;;;;12.60;5.30;;;;;;;7.36;100.00;101785.47;4980315;28;20327;-80
2023/02/13 02:44:32;;;;;;;8.95;5.25;;;;;;;7.34;100.00;101782.09;5001155;28;20029;-80
2023/02/13 02:49:58;;;;;;;13.82;5.00;;;;;;;7.31;100.00;101781.31;5034904;28;20065;-76
2023/02/13 02:53:05;;;;;;;16.05;5.57;;;;;;;7.28;100.00;101781.50;5018676;28;20040;-80
2023/02/13 02:56:17;;;;;;;16.17;5.05;;;;;;;7.29;100.00;101766.56;4947446;28;20375;-80
2023/02/13 03:07:31;;;;;;;11.38;4.35;;;;;;;7.20;100.00;101773.19;5026358;28;20045;-80
2023/02/13 03:13:30;;;;;;;12.00;5.10;;;;;;;7.17;100.00;101765.50;5028060;28;20116;-80
2023/02/13 03:22:21;;;;;;;15.68;4.10;;;;;;;7.09;100.00;101751.97;5018475;28;20046;-80
2023/02/13 03:25:05;;;;;;;15.05;4.85;;;;;;;7.01;100.00;101745.34;5002619;28;20406;-80
2023/02/13 03:31:11;;;;;;;7.80;4.32;;;;;;;7.03;100.00;101735.59;5004830;28;20157;-77
2023/02/13 03:33:52;;;;;;;14.80;5.03;;;;;;;6.98;100.00;101740.28;5021610;28;20026;-76
2023/02/13 03:40:08;;;;;;;17.77;4.82;;;;;;;6.93;100.00;101740.53;5009351;28;20045;-76
2023/02/13 03:42:54;;;;;;;18.50;4.90;;;;;;;6.91;100.00;101737.13;5011091;28;20613;-80
2023/02/13 03:51:42;;;;;;;9.63;4.65;;;;;;;6.91;100.00;101733.69;4929012;29;20040;-80
2023/02/13 03:54:20;;;;;;;14.52;4.28;;;;;;;6.91;100.00;101734.50;5004727;28;20050;-80
2023/02/13 03:59:36;;;;;;;17.08;5.10;;;;;;;6.92;100.00;101727.47;5024188;28;20060;-76
2023/02/13 04:02:04;;;;;;;17.17;5.03;;;;;;;6.92;100.00;101730.13;5010138;28;20168;-80
2023/02/13 04:04:49;;;;;;;14.02;5.40;;;;;;;6.92;100.00;101727.47;5013001;28;20033;-79
2023/02/13 04:07:30;;;;;;;20.90;4.33;;;;;;;6.92;100.00;101730.13;4995153;28;20042;-80
2023/02/13 04:10:09;;;;;;;8.15;3.88;;;;;;;6.93;100.00;101713.41;5009012;28;20026;-80
2023/02/13 04:12:48;;;;;;;11.25;4.53;;;;;;;6.93;100.00;101716.03;4984017;28;20050;-80
2023/02/13 04:15:16;;;;;;;15.10;4.47;;;;;;;6.89;100.00;101711.88;5010088;28;20030;-80
2023/02/13 04:17:50;;;;;;;15.50;5.07;;;;;;;6.92;100.00;101722.22;5010825;28;20084;-80
2023/02/13 04:20:17;;;;;;;19.30;4.60;;;;;;;6.85;100.00;101729.59;5011178;28;20037;-80
2023/02/13 04:22:45;;;;;;;16.52;4.30;;;;;;;6.87;100.00;101727.75;5009846;28;20038;-80
2023/02/13 04:25:12;;;;;;;13.40;4.25;;;;;;;6.87;100.00;101725.13;5001716;28;20113;-80
2023/02/13 04:27:38;;;;;;;18.70;5.32;;;;;;;6.83;100.00;101713.94;5008854;28;20259;-80
2023/02/13 04:30:05;;;;;;;18.58;4.28;;;;;;;6.83;100.00;101716.56;5010735;28;20033;-80
2023/02/13 04:32:31;;;;;;;18.40;5.13;;;;;;;6.80;100.00;101713.28;5011421;28;20049;-80
2023/02/13 04:34:56;;;;;;;14.30;4.20;;;;;;;6.80;100.00;101711.47;5026669;28;20394;-79
2023/02/13 04:37:23;;;;;;;15.57;4.45;;;;;;;6.82;100.00;101704.34;5025679;28;20041;-80
2023/02/13 04:39:49;;;;;;;16.30;4.53;;;;;;;6.80;100.00;101708.84;5006983;28;20050;-80
2023/02/13 04:42:15;;;;;;;10.05;4.07;;;;;;;6.79;100.00;101699.28;5010974;28;20033;-80
2023/02/13 04:44:41;;;;;;;14.80;4.53;;;;;;;6.75;100.00;101707.44;4993851;28;20064;-80
2023/02/13 04:47:07;;;;;;;17.70;4.88;;;;;;;6.76;100.00;101706.50;5007368;28;20418;-80
2023/02/13 04:49:32;;;;;;;19.65;6.95;;;;;;;6.77;100.00;101700.31;5010577;28;20113;-80
2023/02/13 04:51:58;;;;;;;23.73;5.47;;;;;;;6.78;100.00;101705.47;5008760;28;20044;-80
2023/02/13 04:54:24;;;;;;;20.27;4.95;;;;;;;6.76;100.00;101704.72;5009561;28;20056;-80
2023/02/13 04:56:50;;;;;;;16.33;5.45;;;;;;;6.75;100.00;101696.91;5006919;28;20494;-80
2023/02/13 04:59:16;;;;;;;15.25;5.03;;;;;;;6.76;100.00;101703.84;5007498;28;20046;-80
2023/02/13 05:01:41;;;;;;;11.85;4.80;;;;;;;6.75;100.00;101696.91;5008586;28;20449;-76
2023/02/13 05:04:07;;;;;;;19.48;6.43;;;;;;;6.78;100.00;101707.25;5003501;28;20049;-76
2023/02/13 05:06:34;;;;;;;13.05;5.90;;;;;;;6.79;100.00;101698.44;5002015;28;20040;-80
2023/02/13 05:09:00;;;;;;;22.80;5.97;;;;;;;6.75;100.00;101700.41;5010379;28;20104;-80
2023/02/13 05:11:25;;;;;;;22.40;5.35;;;;;;;6.67;100.00;101698.19;5009854;28;20447;-80
2023/02/13 05:13:52;;;;;;;26.42;5.65;;;;;;;6.67;100.00;101690.31;5009745;28;20030;-80
2023/02/13 05:16:18;;;;;;;14.20;5.07;;;;;;;6.67;100.00;101690.31;5008641;28;20028;-80
2023/02/13 05:18:44;;;;;;;12.88;4.68;;;;;;;6.66;100.00;101690.41;5023798;28;20486;-80
2023/02/13 05:23:56;;;;;;;22.20;5.68;;;;;;;6.61;100.00;101684.56;5002648;28;20054;-80
2023/02/13 05:26:26;;;;;;;16.45;5.20;;;;;;;6.64;100.00;101679.97;5005906;28;20080;-80
2023/02/13 05:31:37;;;;;;;16.77;5.07;;;;;;;6.61;100.00;101690.66;5007334;28;20037;-80
2023/02/13 05:34:03;;;;;;;23.10;6.05;;;;;;;6.58;100.00;101681.19;5006158;28;20032;-80
2023/02/13 05:36:28;;;;;;;15.95;5.25;;;;;;;6.61;100.00;101689.84;4943835;28;20097;-80
2023/02/13 05:38:54;;;;;;;19.60;5.88;;;;;;;6.62;100.00;101688.88;5009463;28;20045;-80
2023/02/13 05:41:21;;;;;;;14.75;5.10;;;;;;;6.61;100.00;101693.28;5007029;28;20036;-80
2023/02/13 05:43:46;;;;;;;15.85;5.38;;;;;;;6.63;100.00;101691.44;5008743;28;20037;-80
2023/02/13 05:46:12;;;;;;;15.30;4.72;;;;;;;6.66;100.00;101699.13;5008414;28;20030;-76
2023/02/13 05:48:38;;;;;;;15.57;5.32;;;;;;;6.67;100.00;101697.38;5006816;28;20038;-76
2023/02/13 05:51:04;;;;;;;14.40;5.38;;;;;;;6.70;100.00;101698.00;5008926;28;20505;-80
2023/02/13 05:53:33;;;;;;;15.85;5.25;;;;;;;6.76;100.00;101701.22;5009213;28;20068;-80
2023/02/13 05:56:01;;;;;;;16.25;5.47;;;;;;;6.77;100.00;101709.03;5007141;28;20032;-80
2023/02/13 05:58:27;;;;;;;14.13;5.40;;;;;;;6.79;100.00;101708.94;5008384;28;20038;-80
2023/02/13 06:00:56;;;;;;;15.52;5.43;;;;;;;6.84;100.00;101709.53;5007070;28;20105;-80
2023/02/13 06:03:23;;;;;;;16.17;5.07;;;;;;;6.83;100.00;101705.22;5008533;28;20042;-80
2023/02/13 06:05:50;;;;;;;16.23;5.20;;;;;;;6.82;100.00;101711.38;5006497;28;20367;-76
2023/02/13 06:08:16;;;;;;;13.73;5.57;;;;;;;6.82;100.00;101699.09;5007859;28;20037;-76
2023/02/13 06:10:41;;;;;;;22.35;6.47;;;;;;;6.86;100.00;101705.03;5004883;28;20064;-79
2023/02/13 06:13:07;;;;;;;15.85;5.90;;;;;;;6.87;100.00;101704.09;5006744;28;20029;-80
2023/02/13 06:15:33;;;;;;;15.88;5.40;;;;;;;6.85;100.00;101699.88;5007352;28;20030;-80
2023/02/13 06:18:00;;;;;;;21.80;6.53;;;;;;;6.89;100.00;101704.00;4949765;28;20038;-80
2023/02/13 06:20:26;;;;;;;29.98;6.93;;;;;;;6.87;100.00;101708.50;5005410;28;20105;-80
2023/02/13 06:22:52;;;;;;;23.42;7.43;;;;;;;6.88;100.00;101699.69;5006625;28;20053;-79
2023/02/13 06:25:18;;;;;;;15.32;5.82;;;;;;;6.89;100.00;101694.34;5048335;28;20067;-80
2023/02/13 06:27:44;;;;;;;19.50;6.78;;;;;;;6.92;100.00;101701.19;5048775;28;20029;-80
2023/02/13 06:30:11;;;;;;;13.23;5.53;;;;;;;6.86;100.00;101694.53;5049039;28;20052;-80
2023/02/13 06:32:37;;;;;;;23.13;6.28;;;;;;;6.87;100.00;101690.09;5017117;28;20646;-80
2023/02/13 06:35:03;;;;;;;27.30;7.63;;;;;;;6.88;100.00;101700.53;5029231;28;20037;-80
2023/02/13 06:37:29;;;;;;;19.75;5.57;;;;;;;6.92;100.00;101693.31;5014169;28;20056;-80
2023/02/13 06:39:55;;;;;;;18.23;5.45;;;;;;;6.92;100.00;101683.66;4946623;28;20039;-80
2023/02/13 06:42:21;;;;;;;17.17;6.93;;;;;;;6.97;100.00;101690.41;5030024;28;20029;-80
2023/02/13 06:44:47;;;;;;;29.38;7.63;;;;;;;6.91;100.00;101674.06;5027628;28;20075;-80
2023/02/13 06:47:14;;;;;;;17.80;7.38;;;;;;;6.92;100.00;101681.03;5046499;28;20033;-80
2023/02/13 06:49:40;;;;;;;20.25;7.15;;;;;;;6.90;100.00;101685.50;5015067;28;20024;-80
2023/02/13 06:52:06;;;;;;;19.60;7.00;;;;;;;6.94;100.00;101679.13;5030024;28;20035;-80
2023/02/13 06:54:31;;;;;;;16.73;6.78;;;;;;;6.93;100.00;101680.06;5045268;28;20122;-80
2023/02/13 06:56:58;;;;;;;24.95;7.18;;;;;;;6.92;100.00;101677.53;5012874;28;20399;-80
2023/02/13 06:59:24;;;;;;;20.23;7.97;;;;;;;6.92;100.00;101682.78;5048820;28;20045;-80
2023/02/13 07:01:49;;;;;;;18.75;6.45;;;;;;;6.92;100.00;101683.66;5026011;28;20044;-80
2023/02/13 07:04:15;;;;;;;17.77;7.65;;;;;;;6.91;100.00;101676.69;5030120;28;20033;-80
2023/02/13 07:06:42;;;;;;;18.23;6.75;;;;;;;6.91;100.00;101681.94;4994229;28;20481;-80
2023/02/13 07:09:08;;;;;;;19.45;7.22;;;;;;;6.91;100.00;101681.13;5045590;28;20053;-80
2023/02/13 07:11:33;;;;;;;22.75;7.95;;;;;;;6.90;100.00;101677.63;5025677;28;20041;-80
2023/02/13 07:13:59;;;;;;;18.52;6.90;;;;;;;6.86;100.00;101684.00;5030306;28;20037;-80
2023/02/13 07:16:25;;;;;;;17.38;7.47;;;;;;;6.83;100.00;101682.38;5048595;28;20396;-80
2023/02/13 07:18:51;;;;;;;19.65;6.97;;;;;;;6.89;100.00;101693.50;5010857;28;20029;-80
2023/02/13 07:21:16;;;;;;;21.05;7.80;;;;;;;6.84;100.00;101693.75;5048554;28;20025;-76
2023/02/13 07:23:42;;;;;;;19.77;8.93;;;;;;;6.83;100.00;101692.91;5029541;28;20041;-76
2023/02/13 07:26:10;;;;;;;19.25;6.75;;;;;;;6.87;100.00;101695.34;5036417;28;20037;-80
2023/02/13 07:28:35;;;;;;;21.33;7.53;;;;;;;6.81;100.00;101686.91;5028577;28;20043;-80
2023/02/13 07:31:04;;;;;;;17.50;7.25;;;;;;;6.83;100.00;101684.19;5031832;28;20072;-80
2023/02/13 07:33:33;;;;;;;23.83;7.95;;;;;;;6.80;100.00;101689.63;5040380;28;20029;-79
2023/02/13 07:36:02;;;;;;;26.23;8.55;;;;;;;6.79;100.00;101690.53;5025389;28;20036;-80
2023/02/13 07:38:32;;;;;;;25.27;8.60;;;;;;;6.80;100.00;101689.63;5027358;28;20044;-80
2023/02/13 07:40:59;;;;;;;23.45;8.68;;;;;;;6.87;100.00;101704.09;5035097;28;20092;-80
2023/02/13 07:43:25;;;;;;;25.50;9.13;;;;;;;6.86;100.00;101698.94;4989095;28;20091;-80
2023/02/13 07:45:54;;;;;;;21.42;9.15;;;;;;;6.88;100.00;101702.31;5026848;28;20489;-80
2023/02/13 07:48:21;;;;;;;21.27;8.75;;;;;;;6.89;100.00;101690.88;5025924;28;20037;-80
2023/02/13 07:50:47;;;;;;;26.75;9.10;;;;;;;6.89;100.00;101682.97;5046677;28;20029;-80
2023/02/13 07:53:13;;;;;;;23.77;10.13;;;;;;;6.92;100.00;101686.28;5009701;28;20091;-80
2023/02/13 07:55:40;;;;;;;22.98;9.15;;;;;;;6.94;100.00;101684.38;5027946;28;20495;-80
2023/02/13 07:58:06;;;;;;;24.55;9.27;;;;;;;6.92;100.00;101682.78;5029023;28;20485;-80
2023/02/13 08:00:32;;;;;;;28.92;10.15;;;;;;;6.93;100.00;101689.75;5044496;28;20086;-80
2023/02/13 08:03:01;;;;;;;22.13;11.13;;;;;;;6.96;100.00;101684.28;5046197;28;20033;-80
2023/02/13 08:05:29;;;;;;;29.45;11.13;;;;;;;6.96;100.00;101686.94;5026414;28;20482;-80
2023/02/13 08:07:55;;;;;;;21.20;10.20;;;;;;;6.96;100.00;101694.81;5041972;28;20045;-80
2023/02/13 08:13:07;;;;;;;24.05;10.57;;;;;;;6.98;100.00;101692.94;5046232;28;20041;-80
2023/02/13 08:15:33;;;;;;;16.50;9.35;;;;;;;6.97;100.00;101696.53;5004929;28;20389;-80
2023/02/13 08:17:59;;;;;;;25.13;10.55;;;;;;;7.00;100.00;101696.34;5026049;28;20045;-76
2023/02/13 08:20:25;;;;;;;28.05;10.27;;;;;;;7.03;100.00;101703.19;5027024;28;20048;-76
2023/02/13 08:22:51;;;;;;;26.45;11.02;;;;;;;7.05;100.00;101704.81;5042665;28;20485;-79
2023/02/13 08:25:18;;;;;;;22.38;9.75;;;;;;;7.06;100.00;101695.97;5024838;28;20033;-80
2023/02/13 08:27:48;;;;;;;20.73;9.85;;;;;;;7.11;100.00;101702.75;5014034;28;21673;-80
2023/02/13 08:30:14;;;;;;;18.38;10.23;;;;;;;7.12;100.00;101705.28;5043105;28;20419;-79
2023/02/13 08:32:40;;;;;;;19.00;10.65;;;;;;;7.18;100.00;101711.97;5030547;28;20408;-75
2023/02/13 08:35:07;;;;;;;29.42;10.93;;;;;;;7.20;100.00;101705.69;5011530;28;20033;-76
2023/02/13 08:37:32;;;;;;;28.08;11.30;;;;;;;7.22;100.00;101705.59;5048052;28;20040;-79
2023/02/13 08:39:58;;;;;;;25.40;10.65;;;;;;;7.19;100.00;101698.75;5028464;28;20040;-79
2023/02/13 08:42:24;;;;;;;23.40;11.13;;;;;;;7.20;100.00;101689.03;4982358;28;20707;-79
2023/02/13 08:44:51;;;;;;;24.80;11.43;;;;;;;7.23;100.00;101699.38;5023710;28;20036;-80
2023/02/13 08:47:17;;;;;;;27.02;11.88;;;;;;;7.23;100.00;101694.13;5017737;28;20028;-76
2023/02/13 08:49:43;;;;;;;31.55;12.25;;;;;;;7.22;100.00;101696.84;5027659;28;20075;-76
2023/02/13 08:52:09;;;;;;;18.98;11.45;;;;;;;7.22;100.00;101689.81;5032476;28;20033;-79
2023/02/13 08:54:35;;;;;;;28.75;11.70;;;;;;;7.22;100.00;101692.44;5049204;28;20037;-80
2023/02/13 08:57:02;;;;;;;28.88;12.63;;;;;;;7.22;100.00;101691.59;5031147;28;20139;-76
2023/02/13 08:59:27;;;;;;;25.25;12.48;;;;;;;7.20;100.00;101692.53;5015705;28;20040;-76
2023/02/13 09:01:53;;;;;;;25.98;12.23;;;;;;;7.21;100.00;101696.03;5008760;28;20100;-76
2023/02/13 09:04:19;;;;;;;22.98;11.80;;;;;;;7.25;100.00;101689.63;5031278;28;20052;-76
2023/02/13 09:06:47;;;;;;;23.88;12.73;;;;;;;7.25;100.00;101684.38;5048690;28;20477;-80
2023/02/13 09:09:13;;;;;;;27.05;12.77;;;;;;;7.28;100.00;101684.19;5038379;28;20029;-80
2023/02/13 09:11:38;;;;;;;27.50;12.93;;;;;;;7.28;100.00;101694.69;5046535;28;20508;-80
2023/02/13 09:14:05;;;;;;;24.88;12.65;;;;;;;7.32;100.00;101685.72;5032726;28;20474;-80
2023/02/13 09:16:31;;;;;;;33.28;13.55;;;;;;;7.32;100.00;101688.34;5030048;28;20056;-80
2023/02/13 09:18:58;;;;;;;24.38;13.27;;;;;;;7.37;100.00;101689.84;5048554;28;20446;-80
2023/02/13 09:21:23;;;;;;;32.92;14.18;;;;;;;7.39;100.00;101682.72;5044592;28;20060;-80
2023/02/13 09:23:50;;;;;;;26.63;12.93;;;;;;;7.41;100.00;101673.78;5021348;28;20078;-80
2023/02/13 09:26:17;;;;;;;25.92;13.43;;;;;;;7.43;100.00;101676.31;5025128;28;20033;-76
2023/02/13 09:28:43;;;;;;;26.08;13.85;;;;;;;7.44;100.00;101683.25;5025054;28;20044;-76
2023/02/13 09:31:13;;;;;;;29.42;14.60;;;;;;;7.47;100.00;101683.06;5044382;28;20210;-80
2023/02/13 09:33:40;;;;;;;27.63;13.75;;;;;;;7.48;100.00;101676.88;5042686;28;20033;-80
2023/02/13 09:36:08;;;;;;;29.38;14.50;;;;;;;7.48;100.00;101682.16;5027040;28;20068;-79
2023/02/13 09:38:34;;;;;;;27.05;14.00;;;;;;;7.53;100.00;101677.44;5030612;28;20037;-80
2023/02/13 09:41:16;;;;;;;26.35;14.32;;;;;;;7.58;100.00;101682.41;5028269;28;20447;-80
2023/02/13 09:43:57;;;;;;;30.23;14.38;;;;;;;7.64;100.00;101676.81;5017220;28;20041;-79
2023/02/13 09:46:38;;;;;;;25.20;14.55;;;;;;;7.69;100.00;101674.72;5020184;28;20454;-80
2023/02/13 09:49:11;;;;;;;32.53;14.60;;;;;;;7.72;100.00;101676.31;5026088;28;20115;-80
2023/02/13 09:51:37;;;;;;;25.90;14.68;;;;;;;7.76;100.00;101669.91;5023042;28;20461;-77
2023/02/13 09:54:07;;;;;;;24.20;15.23;;;;;;;7.90;100.00;101661.16;5044586;28;20029;-77
2023/02/13 09:56:48;;;;;;;23.67;14.40;;;;;;;7.96;100.00;101665.22;5018492;28;20119;-76
2023/02/13 09:59:35;;;;;;;24.48;14.63;;;;;;;8.01;100.00;101673.63;5028920;28;20102;-76
2023/02/13 10:02:20;;;;;;;29.83;14.80;;;;;;;7.99;100.00;101670.28;5020341;28;20040;-78
2023/02/13 10:04:51;;;;;;;26.65;14.07;;;;;;;7.97;100.00;101668.66;5024218;28;20838;-79
2023/02/13 10:07:17;;;;;;;27.13;14.40;;;;;;;7.99;100.00;101669.41;5025823;28;20033;-76
2023/02/13 10:10:17;;;;;;;27.77;15.60;;;;;;;8.02;100.00;101664.81;5027166;28;20037;-76
2023/02/13 10:12:55;;;;;;;27.77;14.82;;;;;;;8.05;100.00;101663.75;5004333;28;20069;-80
2023/02/13 10:15:34;;;;;;;25.58;14.52;;;;;;;8.04;100.00;101662.91;5023852;28;20037;-79
2023/02/13 10:18:10;;;;;;;23.40;14.52;;;;;;;8.07;100.00;101652.19;5045539;28;20047;-80
2023/02/13 10:20:47;;;;;;;22.73;13.40;;;;;;;8.17;100.00;101648.97;5027273;28;20037;-79
2023/02/13 10:23:32;;;;;;;25.63;14.38;;;;;;;8.20;100.00;101661.94;5014098;28;20450;-79
2023/02/13 10:26:02;;;;;;;25.38;15.27;;;;;;;8.31;100.00;101656.00;5035378;28;20504;-79
2023/02/13 10:28:28;;;;;;;25.65;14.27;;;;;;;8.34;100.00;101665.47;5014088;28;20060;-80
2023/02/13 10:30:58;;;;;;;21.83;13.55;;;;;;;8.36;100.00;101669.69;5043954;28;20120;-79
2023/02/13 10:33:35;;;;;;;19.38;13.85;;;;;;;8.39;100.00;101664.22;5030953;28;20041;-79
2023/02/13 10:36:10;;;;;;;21.23;13.63;;;;;;;8.41;100.00;101659.69;5024114;28;20037;-79
2023/02/13 10:38:44;;;;;;;23.48;13.63;;;;;;;8.41;100.00;101661.47;5026355;28;20170;-79
2023/02/13 10:41:28;;;;;;;25.33;13.55;;;;;;;8.44;100.00;101659.50;5044849;28;20039;-79
2023/02/13 10:44:19;;;;;;;27.30;12.70;;;;;;;8.45;100.00;101668.25;5045348;28;20032;-79
2023/02/13 10:46:47;;;;;;;26.88;13.80;;;;;;;8.50;100.00;101665.31;5041924;28;20025;-80
2023/02/13 10:49:39;;;;;;;24.02;13.40;;;;;;;8.63;100.00;101673.31;5026368;28;20102;-79
2023/02/13 10:52:42;;;;;;;24.58;13.93;;;;;;;8.63;100.00;101671.50;5033454;28;20120;-76
2023/02/13 10:55:34;;;;;;;26.23;13.57;;;;;;;8.64;100.00;101673.22;5017245;28;20054;-76
2023/02/13 10:58:41;;;;;;;26.00;13.73;;;;;;;8.64;100.00;101664.44;5024098;28;20128;-80
2023/02/13 11:01:22;;;;;;;;;;;;;;;8.55;100.00;101674.63;4940574;28;20054;-79
2023/02/13 11:04:16;;;;;;;30.15;12.80;;;;;;;8.55;100.00;101672.00;4942612;28;20148;-80
2023/02/13 11:06:52;;;;;;;26.05;13.68;;;;;;;8.56;100.00;101678.97;4992152;28;20053;-79
2023/02/13 11:09:19;;;;;;;26.38;12.73;;;;;;;8.54;100.00;101672.06;5024143;28;20474;-79
2023/02/13 11:11:45;;;;;;;24.15;12.27;;;;;;;8.54;100.00;101670.31;5031878;28;20037;-76
2023/02/13 11:14:24;;;;;;;24.38;13.85;;;;;;;8.60;100.00;101678.78;5023801;28;20087;-76
2023/02/13 11:17:04;;;;;;;29.60;12.73;;;;;;;8.59;100.00;101677.94;5042745;28;20029;-76
2023/02/13 11:19:34;;;;;;;20.23;13.13;;;;;;;8.58;100.00;101672.75;5042602;28;20067;-77
2023/02/13 11:22:12;;;;;;;23.85;12.52;;;;;;;8.59;100.00;101670.03;5023047;28;20485;-76
2023/02/13 11:24:52;;;;;;;22.38;12.52;;;;;;;8.56;100.00;101672.84;5021933;28;20072;-76
2023/02/13 11:27:25;;;;;;;22.35;12.73;;;;;;;8.55;100.00;101671.19;5045949;28;20401;-79
2023/02/13 11:29:53;;;;;;;27.88;13.10;;;;;;;8.52;100.00;101669.53;5043445;28;20065;-80
2023/02/13 11:32:31;;;;;;;23.90;13.23;;;;;;;8.56;100.00;101667.59;5050285;28;20070;-80
2023/02/13 11:35:01;;;;;;;28.67;14.05;;;;;;;8.54;100.00;101669.44;5042334;28;20037;-80
2023/02/13 11:37:29;;;;;;;24.48;12.45;;;;;;;8.56;100.00;101670.22;5043055;28;20036;-79
2023/02/13 11:39:57;;;;;;;26.05;13.40;;;;;;;8.62;100.00;101666.31;5046931;28;20037;-80
2023/02/13 11:42:34;;;;;;;22.75;13.40;;;;;;;8.65;100.00;101663.50;5027431;28;20165;-79
2023/02/13 11:45:19;;;;;;;26.08;13.40;;;;;;;8.66;100.00;101660.75;4998881;28;20378;-79
2023/02/13 11:47:45;;;;;;;27.48;13.70;;;;;;;8.66;100.00;101652.03;5043927;28;20085;-80
2023/02/13 11:50:33;;;;;;;23.50;13.93;;;;;;;8.76;100.00;101647.81;5010125;28;20037;-79
2023/02/13 11:53:05;;;;;;;21.65;13.15;;;;;;;8.79;100.00;101639.69;5032809;28;20516;-76
2023/02/13 11:55:37;;;;;;;26.50;13.48;;;;;;;8.88;100.00;101640.03;5044242;28;20037;-77
2023/02/13 11:58:22;;;;;;;26.33;14.45;;;;;;;8.93;100.00;101635.28;5017417;28;20112;-80
2023/02/13 12:00:48;;;;;;;18.90;13.70;;;;;;;8.94;100.00;101642.25;5037730;28;20076;-79
2023/02/13 12:03:20;;;;;;;31.55;14.35;;;;;;;8.96;100.00;101642.16;5032532;28;20119;-80
2023/02/13 12:06:06;;;;;;;22.30;13.98;;;;;;;8.93;100.00;101640.56;5035994;28;20053;-80
2023/02/13 12:08:35;;;;;;;25.63;14.20;;;;;;;8.92;100.00;101637.09;5015278;28;20055;-80
2023/02/13 12:11:08;;;;;;;27.48;14.52;;;;;;;8.87;100.00;101633.91;5033488;28;20060;-80
2023/02/13 12:13:37;;;;;;;23.80;14.18;;;;;;;8.90;100.00;101623.16;5026138;28;20041;-79
2023/02/13 12:16:20;;;;;;;25.27;14.75;;;;;;;8.90;100.00;101624.97;5024367;28;20405;-80
2023/02/13 12:18:51;;;;;;;28.17;15.40;;;;;;;8.87;100.00;101630.44;5004114;28;20231;-80